Time;durP1;ratioP1;P1;durP2;ratioP2;P2;SDS_P1;SDS_P2;PMS_P1;PMS_P2;Temp;Humidity;BMP_temperature;BMP_pressure;BME280_temperature;BME280_humidity;BME280_pressure;Samples;Min_cycle;Max_cycle;Signal;HPM_P1;HPM_P2
2023/05/16 00:01:25;;;;;;;13.23;3.40;;;;;;;13.33;57.87;101816.72;5047192;28;20117;-64
2023/05/16 00:03:54;;;;;;;18.65;3.88;;;;;;;13.33;57.80;101825.66;5051163;28;20140;-67
2023/05/16 00:06:22;;;;;;;15.63;3.47;;;;;;;13.32;57.68;101831.25;5060725;28;20044;-67
2023/05/16 00:08:50;;;;;;;22.63;4.38;;;;;;;13.30;57.64;101828.78;5059485;28;20045;-69
2023/05/16 00:11:20;;;;;;;17.20;4.28;;;;;;;13.29;57.60;101829.00;5059656;28;20057;-67
2023/05/16 00:13:50;;;;;;;13.45;3.50;;;;;;;13.23;57.65;101827.97;5056023;28;20037;-68
2023/05/16 00:16:20;;;;;;;13.95;3.30;;;;;;;13.24;57.34;101840.44;5057638;28;20543;-68
2023/05/16 00:18:48;;;;;;;17.02;3.88;;;;;;;13.19;57.31;101831.31;5051382;28;20108;-68
2023/05/16 00:21:17;;;;;;;15.20;3.42;;;;;;;13.18;57.37;101835.06;5057398;28;20057;-67
2023/05/16 00:23:45;;;;;;;15.10;3.40;;;;;;;13.17;57.21;101828.00;5060228;28;20075;-67
2023/05/16 00:26:13;;;;;;;15.65;2.97;;;;;;;13.17;56.94;101830.72;5042565;28;20053;-67
2023/05/16 00:28:42;;;;;;;15.65;3.95;;;;;;;13.15;57.27;101839.00;5061118;28;20083;-68
2023/05/16 00:31:11;;;;;;;21.20;3.22;;;;;;;13.13;57.22;101829.47;5051313;28;20053;-68
2023/05/16 00:33:39;;;;;;;15.98;3.10;;;;;;;13.10;57.20;101829.88;5059002;28;20059;-67
2023/05/16 00:36:07;;;;;;;14.52;3.05;;;;;;;13.11;56.95;101834.25;5054927;28;20109;-67
2023/05/16 00:38:35;;;;;;;16.55;3.70;;;;;;;13.10;56.90;101827.19;5053202;28;20049;-67
2023/05/16 00:41:03;;;;;;;15.10;3.97;;;;;;;13.09;57.05;101823.66;5048317;28;20052;-67
2023/05/16 00:43:31;;;;;;;14.90;3.30;;;;;;;13.10;56.79;101835.28;5060731;28;20061;-67
2023/05/16 00:46:00;;;;;;;13.38;2.85;;;;;;;13.08;56.80;101838.19;5047667;28;20084;-67
2023/05/16 00:48:29;;;;;;;12.00;2.97;;;;;;;13.07;56.85;101833.00;5049561;28;20064;-67
2023/05/16 00:50:57;;;;;;;12.15;3.00;;;;;;;13.05;57.08;101835.91;5056576;28;20050;-68
2023/05/16 00:53:25;;;;;;;13.30;3.35;;;;;;;13.02;56.70;101833.66;5047475;28;20049;-67
2023/05/16 00:55:54;;;;;;;10.73;3.38;;;;;;;13.01;57.09;101834.69;5055569;28;20538;-68
2023/05/16 00:58:22;;;;;;;14.02;3.70;;;;;;;12.99;56.84;101832.22;5059795;28;20109;-67
2023/05/16 01:00:50;;;;;;;14.35;3.53;;;;;;;12.98;57.02;101844.03;5048861;28;20144;-67
2023/05/16 01:03:20;;;;;;;20.60;4.15;;;;;;;12.97;56.49;101845.09;5056001;28;20349;-67
2023/05/16 01:05:49;;;;;;;18.55;3.65;;;;;;;12.97;56.46;101845.09;5051193;28;20057;-67
2023/05/16 01:08:18;;;;;;;15.32;2.63;;;;;;;12.96;56.49;101835.34;5062942;28;20080;-68
2023/05/16 01:10:53;;;;;;;16.55;3.30;;;;;;;12.97;56.54;101836.16;5057723;28;20049;-67
2023/05/16 01:13:27;;;;;;;15.75;3.08;;;;;;;12.97;56.44;101849.66;5055495;28;20045;-67
2023/05/16 01:16:04;;;;;;;18.60;4.22;;;;;;;12.96;56.41;101851.53;5053451;28;20045;-65
2023/05/16 01:18:43;;;;;;;11.57;2.95;;;;;;;12.96;56.38;101848.00;5064765;28;20498;-67
2023/05/16 01:21:16;;;;;;;15.63;3.65;;;;;;;12.87;56.46;101844.69;5064173;28;20084;-67
2023/05/16 01:23:53;;;;;;;18.33;4.63;;;;;;;12.92;56.32;101855.69;5064860;28;20088;-67
2023/05/16 01:26:26;;;;;;;18.70;3.33;;;;;;;12.93;56.16;101849.25;5052442;28;20072;-63
2023/05/16 01:28:54;;;;;;;14.55;3.55;;;;;;;12.93;56.62;101846.56;5052739;28;20073;-65
2023/05/16 01:31:23;;;;;;;16.95;3.53;;;;;;;12.92;56.33;101842.19;5050465;28;20049;-67
2023/05/16 01:33:51;;;;;;;11.98;2.60;;;;;;;12.92;55.92;101853.00;5059417;28;20056;-67
2023/05/16 01:36:25;;;;;;;9.43;2.53;;;;;;;12.92;56.05;101847.59;5052975;28;20053;-67
2023/05/16 01:39:02;;;;;;;15.18;2.55;;;;;;;12.90;55.89;101848.84;5063379;28;20056;-68
2023/05/16 01:41:41;;;;;;;11.85;3.33;;;;;;;12.88;56.21;101853.63;5062345;28;20051;-69
2023/05/16 01:44:18;;;;;;;11.18;2.90;;;;;;;12.84;55.71;101855.91;5051368;28;20045;-67
2023/05/16 01:46:48;;;;;;;16.45;4.00;;;;;;;12.76;55.85;101850.75;5054563;28;20418;-67
2023/05/16 01:49:20;;;;;;;17.02;3.13;;;;;;;12.80;56.07;101853.84;5048869;28;20259;-67
2023/05/16 01:51:51;;;;;;;13.88;3.55;;;;;;;12.76;55.95;101858.03;5055536;28;20073;-67
2023/05/16 01:54:22;;;;;;;14.68;3.78;;;;;;;12.75;55.85;101856.38;5061832;28;20049;-67
2023/05/16 01:56:53;;;;;;;12.60;2.20;;;;;;;12.73;55.66;101861.13;5058980;28;20065;-67
2023/05/16 01:59:23;;;;;;;11.38;2.28;;;;;;;12.70;55.80;101865.09;5055841;28;20060;-67
2023/05/16 02:01:53;;;;;;;21.13;2.83;;;;;;;12.69;55.82;101872.34;5057233;28;20055;-66
2023/05/16 02:04:22;;;;;;;15.13;3.05;;;;;;;12.68;55.81;101869.88;5058343;28;20528;-67
2023/05/16 02:06:51;;;;;;;11.23;3.22;;;;;;;12.61;55.76;101863.66;5059933;28;20049;-63
2023/05/16 02:09:19;;;;;;;11.75;3.17;;;;;;;12.64;55.56;101874.03;5060643;28;20178;-67
2023/05/16 02:11:47;;;;;;;16.17;2.85;;;;;;;12.63;55.34;101875.06;5053372;28;20160;-67
2023/05/16 02:14:16;;;;;;;11.70;2.33;;;;;;;12.62;55.36;101868.00;5056202;28;20554;-68
2023/05/16 02:16:45;;;;;;;10.27;2.78;;;;;;;12.60;55.65;101876.31;5049207;28;20076;-67
2023/05/16 02:19:13;;;;;;;11.30;2.58;;;;;;;12.58;55.67;101873.00;5055825;28;20053;-66
2023/05/16 02:21:41;;;;;;;9.10;2.35;;;;;;;12.57;55.30;101873.19;5054273;28;20046;-67
2023/05/16 02:24:08;;;;;;;9.90;2.72;;;;;;;12.56;55.54;101875.06;5050528;28;20049;-67
2023/05/16 02:26:36;;;;;;;23.13;3.40;;;;;;;12.56;55.39;101871.53;5043443;28;20113;-66
2023/05/16 02:29:05;;;;;;;13.35;2.60;;;;;;;12.53;55.46;101867.41;5052730;28;20084;-67
2023/05/16 02:31:35;;;;;;;12.27;2.72;;;;;;;12.52;55.16;101873.00;5050514;28;20205;-66
2023/05/16 02:34:03;;;;;;;11.45;2.65;;;;;;;12.50;55.36;101877.78;5057122;28;20075;-67
2023/05/16 02:36:30;;;;;;;12.45;2.55;;;;;;;12.48;55.16;101886.06;5046357;28;20049;-66
2023/05/16 02:38:58;;;;;;;10.73;3.15;;;;;;;12.40;55.40;101875.50;5050579;28;20052;-66
2023/05/16 02:41:26;;;;;;;15.93;2.60;;;;;;;12.45;55.27;101885.66;5068530;28;20338;-67
2023/05/16 02:43:54;;;;;;;13.43;3.63;;;;;;;12.44;55.34;101892.09;5064054;28;20097;-61
2023/05/16 02:46:27;;;;;;;11.27;3.03;;;;;;;12.44;55.37;101894.78;5049192;28;20132;-67
2023/05/16 02:48:57;;;;;;;15.40;2.78;;;;;;;12.41;55.28;101893.34;5053571;28;20529;-67
2023/05/16 02:51:26;;;;;;;12.57;2.55;;;;;;;12.41;55.46;101900.59;5061801;28;20053;-67
2023/05/16 02:53:55;;;;;;;11.00;2.45;;;;;;;12.39;55.05;101900.81;5050400;28;20152;-68
2023/05/16 02:56:23;;;;;;;12.63;2.50;;;;;;;12.38;55.02;101907.22;5060471;28;20106;-67
2023/05/16 02:58:53;;;;;;;12.65;2.53;;;;;;;12.36;55.15;101914.69;5061706;28;20076;-67
2023/05/16 03:01:21;;;;;;;13.25;2.45;;;;;;;12.36;54.94;101909.31;5060108;28;20060;-68
2023/05/16 03:03:49;;;;;;;11.73;2.30;;;;;;;12.35;55.14;101913.03;5052136;28;20049;-66
2023/05/16 03:06:19;;;;;;;10.15;2.55;;;;;;;12.33;55.34;101920.50;5055340;28;20055;-67
2023/05/16 03:08:47;;;;;;;13.02;2.92;;;;;;;12.33;55.31;101920.50;5054744;28;20136;-67
2023/05/16 03:11:17;;;;;;;13.05;2.92;;;;;;;12.33;55.23;101926.72;5050084;28;20458;-67
2023/05/16 03:13:45;;;;;;;17.30;3.20;;;;;;;12.32;55.06;101935.84;5051166;28;20045;-67
2023/05/16 03:16:14;;;;;;;9.02;2.50;;;;;;;12.30;55.18;101927.13;5050024;28;20052;-67
2023/05/16 03:18:42;;;;;;;16.48;3.30;;;;;;;12.28;55.31;101931.91;5052314;28;20088;-68
2023/05/16 03:21:10;;;;;;;18.13;3.22;;;;;;;12.26;55.14;101923.19;5052978;28;20045;-67
2023/05/16 03:23:39;;;;;;;10.82;2.25;;;;;;;12.26;55.03;101931.28;5047647;28;20049;-67
2023/05/16 03:26:07;;;;;;;15.93;3.45;;;;;;;12.24;55.00;101933.34;5045768;28;20104;-68
2023/05/16 03:28:35;;;;;;;10.90;2.47;;;;;;;12.23;54.98;101933.56;5060294;28;20204;-67
2023/05/16 03:31:03;;;;;;;15.93;3.17;;;;;;;12.21;55.05;101933.75;5045028;28;20077;-68
2023/05/16 03:33:31;;;;;;;9.18;2.58;;;;;;;12.20;55.23;101934.81;5058242;28;20051;-68
2023/05/16 03:35:59;;;;;;;11.15;2.95;;;;;;;12.19;55.05;101937.69;5050084;28;20055;-66
2023/05/16 03:38:27;;;;;;;11.60;2.78;;;;;;;12.16;55.29;101938.94;5055589;28;20040;-67
2023/05/16 03:40:56;;;;;;;10.82;3.15;;;;;;;12.15;55.42;101944.53;5057376;28;20598;-67
2023/05/16 03:43:24;;;;;;;10.35;2.55;;;;;;;12.15;55.40;101948.06;5052893;28;20251;-68
2023/05/16 03:45:52;;;;;;;10.38;2.38;;;;;;;12.15;55.31;101947.22;5055424;28;20124;-65
2023/05/16 03:48:20;;;;;;;9.38;2.83;;;;;;;12.14;55.16;101946.41;5047487;28;20708;-67
2023/05/16 03:50:48;;;;;;;10.13;2.22;;;;;;;12.13;55.57;101954.72;5055415;28;20140;-67
2023/05/16 03:53:16;;;;;;;11.48;2.90;;;;;;;12.12;55.22;101956.59;5053520;28;20159;-67
2023/05/16 03:55:44;;;;;;;13.68;2.95;;;;;;;12.11;55.24;101948.72;5046850;28;20473;-67
2023/05/16 03:58:16;;;;;;;13.30;2.75;;;;;;;12.09;55.40;101948.09;5048923;28;20546;-67
2023/05/16 04:00:45;;;;;;;11.57;2.70;;;;;;;12.08;55.40;101955.34;5053770;28;20068;-67
2023/05/16 04:03:13;;;;;;;11.77;3.22;;;;;;;12.06;55.66;101952.03;5050432;28;20079;-67
2023/05/16 04:05:41;;;;;;;14.77;3.08;;;;;;;11.95;55.30;101941.84;5053358;28;20048;-67
2023/05/16 04:08:09;;;;;;;10.13;3.00;;;;;;;12.04;55.35;101957.59;5059004;28;20053;-66
2023/05/16 04:10:37;;;;;;;14.15;2.63;;;;;;;12.03;55.40;101960.50;5058253;28;20045;-66
2023/05/16 04:13:05;;;;;;;13.20;2.85;;;;;;;12.01;55.43;101963.41;5051635;28;20121;-68
2023/05/16 04:15:34;;;;;;;16.73;3.30;;;;;;;12.01;55.59;101962.56;5049728;28;20045;-66
2023/05/16 04:18:02;;;;;;;12.27;2.58;;;;;;;11.98;55.67;101962.97;5054128;28;20045;-66
2023/05/16 04:20:30;;;;;;;15.80;3.13;;;;;;;11.97;55.34;101964.84;5050149;28;20076;-66
2023/05/16 04:22:59;;;;;;;10.00;2.00;;;;;;;11.98;55.63;101971.06;5051176;28;20057;-67
2023/05/16 04:25:27;;;;;;;13.52;2.38;;;;;;;11.97;55.39;101970.25;5042135;28;20458;-67
2023/05/16 04:27:56;;;;;;;16.30;2.63;;;;;;;11.96;55.47;101975.81;5054748;28;20061;-67
2023/05/16 04:30:23;;;;;;;12.70;2.92;;;;;;;11.95;55.77;101972.31;5047890;28;20149;-67
2023/05/16 04:32:53;;;;;;;13.80;2.90;;;;;;;11.92;55.60;101978.09;5053644;28;20060;-65
2023/05/16 04:35:21;;;;;;;12.65;2.72;;;;;;;11.90;55.46;101982.84;5049297;28;20050;-66
2023/05/16 04:37:50;;;;;;;9.75;2.72;;;;;;;11.90;55.61;101987.41;5054637;28;20056;-65
2023/05/16 04:40:17;;;;;;;13.23;2.30;;;;;;;11.89;55.74;101999.22;5055355;28;20056;-67
2023/05/16 04:42:45;;;;;;;12.60;2.63;;;;;;;11.87;55.80;101991.34;5057356;28;20138;-64
2023/05/16 04:45:13;;;;;;;12.70;2.97;;;;;;;11.85;55.82;101996.09;5042611;28;20041;-67
2023/05/16 04:47:41;;;;;;;15.63;3.40;;;;;;;11.83;55.74;101994.66;5044942;28;20055;-68
2023/05/16 04:50:11;;;;;;;17.08;3.55;;;;;;;11.81;55.93;102008.31;5048312;28;20057;-66
2023/05/16 04:52:39;;;;;;;10.27;2.60;;;;;;;11.80;56.02;102000.44;5055542;28;20049;-69
2023/05/16 04:55:07;;;;;;;10.30;2.60;;;;;;;11.79;56.06;102010.38;5052698;28;20044;-69
2023/05/16 04:57:35;;;;;;;12.90;2.85;;;;;;;11.79;55.99;102012.25;5057636;28;20049;-69
2023/05/16 05:00:07;;;;;;;12.18;2.60;;;;;;;11.77;56.10;102007.06;5048009;28;20587;-65
2023/05/16 05:02:34;;;;;;;11.27;2.85;;;;;;;11.77;56.07;102006.19;5053347;28;20041;-68
2023/05/16 05:05:03;;;;;;;13.27;3.05;;;;;;;11.78;56.15;102010.56;5056547;28;20056;-67
2023/05/16 05:07:33;;;;;;;14.65;2.42;;;;;;;11.78;56.10;102010.56;5054988;28;20588;-67
2023/05/16 05:10:01;;;;;;;17.15;3.67;;;;;;;11.79;56.03;102017.63;5051103;28;20053;-67
2023/05/16 05:12:29;;;;;;;10.65;3.40;;;;;;;11.79;56.38;102015.75;5049872;28;20512;-66
2023/05/16 05:14:56;;;;;;;11.85;2.90;;;;;;;11.79;56.00;102015.75;5052575;28;20053;-66
2023/05/16 05:17:25;;;;;;;14.25;3.22;;;;;;;11.81;56.18;102020.94;5052976;28;20445;-65
2023/05/16 05:19:53;;;;;;;13.52;3.30;;;;;;;11.82;56.25;102015.34;5053273;28;20498;-65
2023/05/16 05:22:21;;;;;;;18.13;3.25;;;;;;;11.84;56.30;102018.69;5059356;28;20076;-65
2023/05/16 05:24:50;;;;;;;18.80;3.33;;;;;;;11.84;56.15;102016.00;5044843;28;20049;-65
2023/05/16 05:27:18;;;;;;;14.02;3.38;;;;;;;11.88;56.21;102019.13;5061725;28;20052;-65
2023/05/16 05:29:46;;;;;;;12.48;3.80;;;;;;;11.84;55.91;102012.47;5058393;28;20063;-65
2023/05/16 05:32:14;;;;;;;12.57;3.15;;;;;;;11.93;56.29;102025.56;5060427;28;20045;-68
2023/05/16 05:34:42;;;;;;;17.95;3.05;;;;;;;11.98;55.96;102036.56;5057717;28;20056;-66
2023/05/16 05:37:10;;;;;;;13.52;3.13;;;;;;;11.99;56.11;102022.06;5054915;28;20131;-66
2023/05/16 05:39:38;;;;;;;12.23;2.67;;;;;;;12.03;56.05;102039.47;5048952;28;20099;-69
2023/05/16 05:42:07;;;;;;;8.40;2.40;;;;;;;12.04;56.24;102035.75;5060815;28;20048;-70
2023/05/16 05:44:36;;;;;;;11.73;2.60;;;;;;;12.06;55.76;102032.84;4703004;28;10000227;-66
2023/05/16 05:47:05;;;;;;;8.65;2.83;;;;;;;12.08;55.88;102029.94;5041757;28;20081;-70
2023/05/16 05:49:34;;;;;;;11.13;2.13;;;;;;;12.00;55.75;102012.09;5043875;28;20186;-69
2023/05/16 05:52:02;;;;;;;11.65;2.75;;;;;;;12.08;55.65;102030.78;5058244;28;20087;-69
2023/05/16 05:54:30;;;;;;;12.82;2.63;;;;;;;12.06;55.77;102027.47;5051500;28;20479;-67
2023/05/16 05:56:58;;;;;;;8.57;1.90;;;;;;;12.09;55.45;102037.84;5056856;28;20049;-67
2023/05/16 05:59:28;;;;;;;7.57;2.42;;;;;;;12.09;55.75;102047.78;5051611;28;20060;-67
2023/05/16 06:01:56;;;;;;;10.32;3.13;;;;;;;12.08;55.51;102049.66;5054541;28;20053;-68
2023/05/16 06:04:24;;;;;;;13.27;2.92;;;;;;;12.08;55.38;102038.03;5057420;28;20053;-68
2023/05/16 06:06:52;;;;;;;9.75;2.47;;;;;;;12.07;55.53;102055.25;5058416;28;20044;-68
2023/05/16 06:09:21;;;;;;;16.27;2.55;;;;;;;12.07;55.33;102047.16;5047506;28;20244;-68
2023/05/16 06:11:50;;;;;;;10.60;2.97;;;;;;;11.98;55.30;102041.94;5050072;28;20121;-63
2023/05/16 06:14:17;;;;;;;16.15;2.28;;;;;;;12.11;55.44;102053.81;5058935;28;20049;-67
2023/05/16 06:16:47;;;;;;;12.32;2.05;;;;;;;12.13;54.97;102057.13;5047882;28;20053;-68
2023/05/16 06:19:15;;;;;;;11.98;2.65;;;;;;;12.14;55.23;102062.28;5055725;28;20112;-68
2023/05/16 06:21:43;;;;;;;12.60;2.97;;;;;;;12.16;54.96;102068.31;5051952;28;20059;-68
2023/05/16 06:24:11;;;;;;;10.27;2.00;;;;;;;12.19;55.13;102067.91;5050745;28;20064;-68
2023/05/16 06:26:39;;;;;;;17.98;3.13;;;;;;;12.24;55.07;102076.22;5050904;28;20055;-67
2023/05/16 06:29:07;;;;;;;11.45;2.70;;;;;;;12.21;54.86;102052.34;5056991;28;20053;-67
2023/05/16 06:31:35;;;;;;;14.40;2.33;;;;;;;12.32;54.96;102061.72;5052488;28;20196;-67
2023/05/16 06:34:04;;;;;;;11.63;2.53;;;;;;;12.36;54.93;102061.09;5058017;28;20050;-68
2023/05/16 06:36:32;;;;;;;9.70;2.55;;;;;;;12.40;54.91;102072.31;5051976;28;20048;-67
2023/05/16 06:39:00;;;;;;;8.43;2.42;;;;;;;12.33;54.50;102058.81;5062403;28;20084;-67
2023/05/16 06:41:28;;;;;;;11.15;2.17;;;;;;;12.42;54.33;102067.53;5053797;28;20083;-67
2023/05/16 06:43:56;;;;;;;13.55;2.40;;;;;;;12.36;54.37;102058.41;5057450;28;20060;-62
2023/05/16 06:46:25;;;;;;;18.00;2.65;;;;;;;12.46;54.23;102076.88;5053095;28;20041;-68
2023/05/16 06:48:53;;;;;;;10.25;2.45;;;;;;;12.39;54.20;102062.56;5056464;28;20056;-68
2023/05/16 06:51:22;;;;;;;12.23;2.33;;;;;;;12.50;54.08;102075.44;5061955;28;20051;-69
2023/05/16 06:53:50;;;;;;;10.45;2.30;;;;;;;12.53;54.43;102076.91;5049320;28;20079;-67
2023/05/16 06:56:18;;;;;;;8.75;2.20;;;;;;;12.53;53.52;102072.34;5047692;28;20061;-67
2023/05/16 06:58:46;;;;;;;15.88;2.70;;;;;;;12.51;53.60;102071.72;5056926;28;20041;-68
2023/05/16 07:01:14;;;;;;;10.82;2.17;;;;;;;12.52;53.66;102064.44;5059667;28;20048;-67
2023/05/16 07:03:42;;;;;;;8.05;2.00;;;;;;;12.52;53.74;102072.53;5043240;28;20061;-67
2023/05/16 07:06:11;;;;;;;8.13;2.28;;;;;;;12.53;53.69;102074.19;5057116;28;20056;-67
2023/05/16 07:08:40;;;;;;;10.07;2.53;;;;;;;12.53;53.67;102075.03;5057398;28;20041;-67
2023/05/16 07:11:10;;;;;;;10.43;2.50;;;;;;;12.53;53.86;102077.72;5061354;28;20048;-67
2023/05/16 07:13:38;;;;;;;17.02;3.20;;;;;;;12.57;54.01;102080.84;5052263;28;20115;-67
2023/05/16 07:16:07;;;;;;;11.52;2.63;;;;;;;12.50;53.56;102055.72;5055120;28;20079;-66
2023/05/16 07:18:35;;;;;;;9.85;1.80;;;;;;;12.60;53.81;102083.13;5053020;28;20041;-66
2023/05/16 07:21:03;;;;;;;11.25;2.65;;;;;;;12.50;53.47;102069.22;5055746;28;20056;-67
2023/05/16 07:23:31;;;;;;;8.65;2.15;;;;;;;12.56;53.53;102074.63;5043151;28;20072;-67
2023/05/16 07:26:03;;;;;;;7.50;1.90;;;;;;;12.53;52.94;102076.91;5046067;28;20495;-67
2023/05/16 07:28:30;;;;;;;12.05;2.30;;;;;;;12.50;53.13;102077.31;5052279;28;20068;-68
2023/05/16 07:30:59;;;;;;;9.45;2.03;;;;;;;12.49;52.74;102081.03;5050553;28;20068;-67
2023/05/16 07:33:27;;;;;;;4.63;1.40;;;;;;;12.47;52.62;102078.53;5042678;28;20057;-68
2023/05/16 07:35:55;;;;;;;8.38;2.65;;;;;;;12.47;52.79;102085.81;5046865;28;20120;-68
2023/05/16 07:38:34;;;;;;;11.65;2.17;;;;;;;12.46;52.65;102094.94;5062756;28;20049;-67
2023/05/16 07:41:05;;;;;;;6.70;1.25;;;;;;;12.46;52.62;102082.28;5055251;28;20072;-66
2023/05/16 07:43:34;;;;;;;9.32;1.67;;;;;;;12.45;52.44;102082.47;5049060;28;20049;-66
2023/05/16 07:46:02;;;;;;;9.95;2.00;;;;;;;12.45;52.26;102080.63;5047588;28;20052;-65
2023/05/16 07:48:30;;;;;;;8.35;1.92;;;;;;;12.44;52.32;102081.66;5046577;28;20089;-67
2023/05/16 07:50:58;;;;;;;9.68;1.70;;;;;;;12.43;51.79;102087.25;5049041;28;20068;-66
2023/05/16 07:53:26;;;;;;;7.75;2.38;;;;;;;12.44;52.26;102086.22;5044008;28;20051;-67
2023/05/16 07:55:54;;;;;;;9.00;1.90;;;;;;;12.44;52.13;102088.91;5046715;28;20050;-66
2023/05/16 07:58:23;;;;;;;8.75;2.40;;;;;;;12.45;52.18;102094.09;5052222;28;20049;-68
2023/05/16 08:00:51;;;;;;;12.77;2.45;;;;;;;12.47;51.86;102091.19;5051434;28;20114;-67
2023/05/16 08:03:19;;;;;;;58.50;10.13;;;;;;;12.51;52.04;102095.16;5043266;28;20072;-67
2023/05/16 08:05:47;;;;;;;12.65;3.97;;;;;;;12.57;51.65;102094.34;5045135;28;20051;-67
2023/05/16 08:08:15;;;;;;;13.75;2.50;;;;;;;12.66;51.49;102093.09;5049130;28;20049;-65
2023/05/16 08:10:43;;;;;;;10.55;2.47;;;;;;;12.95;50.68;102090.03;5041832;28;20049;-65
2023/05/16 08:13:11;;;;;;;9.50;2.58;;;;;;;13.23;49.91;102092.53;5048475;28;20041;-68
2023/05/16 08:15:41;;;;;;;5.90;2.25;;;;;;;13.50;49.52;102093.34;5046535;28;20076;-67
2023/05/16 08:18:13;;;;;;;7.63;1.67;;;;;;;13.47;48.83;102101.03;5042188;28;20049;-67
2023/05/16 08:20:41;;;;;;;12.07;2.38;;;;;;;13.31;49.03;102086.09;5053641;28;20110;-67
2023/05/16 08:23:09;;;;;;;8.82;1.80;;;;;;;13.29;48.91;102094.41;5047701;28;20080;-67
2023/05/16 08:25:37;;;;;;;6.90;1.88;;;;;;;13.25;49.14;102105.84;5041631;28;20064;-66
2023/05/16 08:28:05;;;;;;;5.97;1.58;;;;;;;13.13;49.66;102102.91;5057521;28;20071;-66
2023/05/16 08:30:33;;;;;;;10.85;2.97;;;;;;;13.05;50.07;102103.09;5053381;28;20079;-65
2023/05/16 08:33:04;;;;;;;12.68;2.17;;;;;;;12.96;50.00;102094.38;5045364;28;20060;-65
2023/05/16 08:35:34;;;;;;;7.05;1.95;;;;;;;12.92;50.78;102097.69;5058506;28;20071;-65
2023/05/16 08:38:02;;;;;;;6.63;1.63;;;;;;;12.88;50.94;102097.28;5040269;28;20045;-65
2023/05/16 08:40:30;;;;;;;5.35;1.85;;;;;;;12.84;50.56;102098.72;5051681;28;20102;-63
2023/05/16 08:42:58;;;;;;;11.38;2.20;;;;;;;12.77;50.31;102079.00;5040682;28;20081;-65
2023/05/16 08:45:27;;;;;;;6.22;1.40;;;;;;;12.75;50.91;102072.16;5053883;28;20049;-65
2023/05/16 08:47:56;;;;;;;8.00;1.63;;;;;;;12.85;51.00;102086.91;5051893;28;20080;-65
2023/05/16 08:50:26;;;;;;;7.15;1.70;;;;;;;12.86;51.01;102085.03;5054837;28;20052;-66
2023/05/16 08:52:54;;;;;;;10.35;1.50;;;;;;;12.89;51.42;102090.03;5040503;28;20053;-66
2023/05/16 08:55:23;;;;;;;8.32;1.85;;;;;;;12.89;51.40;102104.34;5042969;28;20121;-65
2023/05/16 08:57:51;;;;;;;7.72;1.80;;;;;;;12.90;51.03;102094.38;5049315;28;20049;-67
2023/05/16 09:00:20;;;;;;;9.98;1.77;;;;;;;12.91;50.85;102090.66;5052757;28;20049;-66
2023/05/16 09:02:48;;;;;;;4.88;1.80;;;;;;;12.92;51.26;102086.91;5041855;28;20065;-65
2023/05/16 09:05:17;;;;;;;9.57;2.38;;;;;;;12.94;51.55;102095.63;5047746;28;20049;-66
2023/05/16 09:07:46;;;;;;;9.38;1.80;;;;;;;12.95;51.52;102083.78;5049423;28;20045;-66
2023/05/16 09:10:15;;;;;;;9.27;1.80;;;;;;;12.97;51.45;102096.03;5052878;28;20053;-66
2023/05/16 09:12:43;;;;;;;5.90;1.50;;;;;;;12.98;51.21;102084.22;5056610;28;20107;-66
2023/05/16 09:15:13;;;;;;;6.68;1.50;;;;;;;13.00;51.14;102084.00;5044484;28;20057;-66
2023/05/16 09:17:44;;;;;;;4.25;1.45;;;;;;;13.02;51.31;102092.72;5061312;28;20040;-65
2023/05/16 09:20:13;;;;;;;4.47;1.15;;;;;;;13.02;50.77;102090.03;5052070;28;20053;-66
2023/05/16 09:22:52;;;;;;;4.53;1.50;;;;;;;13.01;51.12;102097.28;5051319;28;20050;-66
2023/05/16 09:25:21;;;;;;;8.68;1.58;;;;;;;13.02;51.11;102087.31;5044668;28;20092;-66
2023/05/16 09:27:59;;;;;;;8.75;2.05;;;;;;;13.02;51.41;102082.75;5049147;28;20419;-66
2023/05/16 09:30:29;;;;;;;8.63;1.85;;;;;;;13.03;51.43;102087.13;5056235;28;20068;-66
2023/05/16 09:32:57;;;;;;;4.25;1.25;;;;;;;13.04;51.50;102077.97;5048146;28;20068;-66
2023/05/16 09:35:28;;;;;;;6.13;1.88;;;;;;;13.08;51.45;102088.38;5051903;28;20051;-61
2023/05/16 09:38:00;;;;;;;10.40;1.38;;;;;;;13.10;51.40;102081.72;5061745;28;20107;-66
2023/05/16 09:40:27;;;;;;;8.45;1.83;;;;;;;13.11;51.31;102083.38;5050923;28;20044;-66
2023/05/16 09:43:04;;;;;;;6.57;1.73;;;;;;;13.10;50.75;102083.59;5056918;28;20286;-66
2023/05/16 09:45:33;;;;;;;9.48;1.50;;;;;;;13.10;51.24;102072.78;5043721;28;20050;-66
2023/05/16 09:48:04;;;;;;;7.32;1.80;;;;;;;13.11;50.98;102071.75;5048510;28;20048;-66
2023/05/16 09:50:33;;;;;;;8.82;2.08;;;;;;;13.13;51.35;102073.19;5043711;28;20080;-66
2023/05/16 09:53:04;;;;;;;5.32;1.50;;;;;;;13.11;50.80;102067.19;5051369;28;20141;-65
2023/05/16 09:55:32;;;;;;;7.38;1.13;;;;;;;13.14;50.38;102074.88;5055168;28;20084;-66
2023/05/16 09:58:00;;;;;;;9.65;1.70;;;;;;;13.11;50.63;102069.88;5048903;28;20041;-66
2023/05/16 10:00:30;;;;;;;4.63;1.60;;;;;;;13.14;49.13;102074.88;5061657;28;20429;-65
2023/05/16 10:02:58;;;;;;;4.18;1.63;;;;;;;13.13;49.31;102075.91;5058728;28;20123;-66
2023/05/16 10:05:31;;;;;;;3.80;1.30;;;;;;;13.13;49.55;102084.00;5060575;28;20063;-65
2023/05/16 10:08:00;;;;;;;5.13;1.55;;;;;;;13.15;49.61;102075.69;5055284;28;20095;-65
2023/05/16 10:10:30;;;;;;;5.15;1.40;;;;;;;13.15;49.30;102081.94;5048679;28;20052;-65
2023/05/16 10:13:01;;;;;;;5.82;1.92;;;;;;;13.16;49.58;102088.16;5043906;28;20068;-66
2023/05/16 10:15:29;;;;;;;5.22;1.50;;;;;;;13.14;49.36;102090.22;5055668;28;20049;-66
2023/05/16 10:18:00;;;;;;;4.28;1.25;;;;;;;13.08;49.50;102081.09;5054651;28;20050;-65
2023/05/16 10:20:29;;;;;;;8.15;1.92;;;;;;;13.18;49.89;102096.91;5057537;28;20140;-63
2023/05/16 10:22:58;;;;;;;3.67;1.20;;;;;;;13.19;50.14;102088.59;5054192;28;20136;-66
2023/05/16 10:25:32;;;;;;;7.05;1.63;;;;;;;13.19;49.82;102077.81;5045872;28;20114;-61
2023/05/16 10:28:00;;;;;;;6.32;1.38;;;;;;;13.18;49.64;102084.25;5045253;28;20052;-65
2023/05/16 10:30:28;;;;;;;6.13;1.48;;;;;;;13.18;49.18;102076.13;5056856;28;20166;-65
2023/05/16 10:32:57;;;;;;;6.55;1.40;;;;;;;13.19;48.86;102085.91;5052488;28;20127;-64
2023/05/16 10:35:26;;;;;;;8.25;2.15;;;;;;;13.17;46.43;102076.34;5056355;28;20049;-61
2023/05/16 10:37:54;;;;;;;6.22;1.27;;;;;;;13.19;47.06;102076.97;5051641;28;20049;-65
2023/05/16 10:40:23;;;;;;;6.05;1.60;;;;;;;13.22;47.48;102071.97;5058611;28;20045;-66
2023/05/16 10:42:57;;;;;;;6.40;1.90;;;;;;;13.29;47.56;102075.50;5058401;28;20041;-66
2023/05/16 10:45:25;;;;;;;7.63;1.63;;;;;;;13.33;47.45;102070.50;5041656;28;20103;-64
2023/05/16 10:47:55;;;;;;;6.15;1.45;;;;;;;13.36;47.42;102072.78;5060758;28;20060;-65
2023/05/16 10:50:38;;;;;;;5.55;1.40;;;;;;;13.31;47.34;102053.69;5047189;28;20406;-66
2023/05/16 10:53:13;;;;;;;8.40;1.27;;;;;;;13.44;47.68;102075.28;5057109;28;20063;-66
2023/05/16 10:55:45;;;;;;;6.97;2.07;;;;;;;13.45;47.57;102071.53;5053656;28;20064;-66
2023/05/16 10:58:19;;;;;;;8.50;1.27;;;;;;;13.47;46.76;102068.63;5059407;28;20047;-66
2023/05/16 11:00:48;;;;;;;11.02;1.33;;;;;;;13.49;46.19;102080.88;5060884;28;20103;-65
2023/05/16 11:03:24;;;;;;;3.58;1.00;;;;;;;13.53;46.63;102065.91;5048734;28;20110;-66
2023/05/16 11:05:53;;;;;;;;;;;;;;;13.57;46.70;102063.63;5053945;28;20045;-64
2023/05/16 11:08:21;;;;;;;6.07;1.48;;;;;;;13.54;46.58;102061.34;5047932;28;19927;-66
2023/05/16 11:10:48;;;;;;;10.75;1.65;;;;;;;13.65;46.58;102075.03;5059321;28;20045;-65
2023/05/16 11:13:24;;;;;;;4.55;1.63;;;;;;;13.68;45.89;102077.28;5047843;28;20059;-66
2023/05/16 11:16:27;;;;;;;2.83;1.00;;;;;;;13.65;46.33;102066.09;5042660;28;20103;-66
2023/05/16 11:19:04;;;;;;;5.03;1.20;;;;;;;13.74;46.22;102064.81;5052347;28;20044;-66
2023/05/16 11:22:15;;;;;;;6.07;1.40;;;;;;;13.77;45.64;102079.75;5050770;28;20048;-66
2023/05/16 11:24:55;;;;;;;4.32;1.10;;;;;;;13.75;45.38;102073.75;5051125;28;20061;-65
2023/05/16 11:27:26;;;;;;;5.63;1.48;;;;;;;13.74;45.96;102080.19;5059479;28;20060;-65
2023/05/16 11:29:59;;;;;;;6.40;1.98;;;;;;;13.77;46.33;102087.88;5060535;28;20052;-65